»·PEaware :: FDX5954 KAMA-KCOS

FDX5954 :: KAMA-KCOS

FLIGHT INFORMATION

Flight Status: Arrived
Operator:
Federal Express
More flights by this operator :: More flights under this callsign
Pilot: Joshua M. (19482)
Aircraft: BOEING 737-800
(B738)
More flights by this aircraft type
Origin: KAMA Amarillo Intl
United States
Destination: KCOS City Of Colorado Springs Mun
United States
More flights between these airports :: More routes between these airports
Route: +PNH J17 TBE DBRY3
File this flight plan on PilotEdge
Remarks:
Altitude:
(Current/Filed)
24,000ft
Speed:
(Current/Filed)
450kts
Departed: 09-Aug-18 04:06 PM
Arrived: 09-Aug-18 05:24 PM
Distance/Time
Traveled:
259nm/1:18
Distance/Time
To Go:
Arrived

Flight Plot

Page will automatically refresh every two minutes.

Flight plan parsing failed; only flown route is shown


Map Options




Map Legend


Flown Route
Filed Route
Departure Airport
Arrival Airport
Navaid (VOR, NDB)
Fix

Horizontal Profiles

Position Reports

Time Latitude Longitude Heading Altitude Ground
Speed
09-Aug-18 15:26 35.218244 -101.706713 93 3613ft 0kts
09-Aug-18 15:27 35.218244 -101.706713 93 3613ft 0kts
09-Aug-18 15:28 35.218244 -101.706713 93 3613ft 0kts
09-Aug-18 15:29 35.218244 -101.706713 93 3613ft 0kts
09-Aug-18 15:30 35.218244 -101.706713 93 3613ft 0kts
09-Aug-18 15:31 35.218244 -101.706712 93 3613ft 0kts
09-Aug-18 15:32 35.218244 -101.706712 93 3613ft 0kts
09-Aug-18 15:33 35.218244 -101.706712 93 3613ft 0kts
09-Aug-18 15:34 35.218244 -101.706712 93 3613ft 0kts
09-Aug-18 15:35 35.218244 -101.706712 93 3613ft 0kts
09-Aug-18 15:36 35.218244 -101.706712 93 3613ft 0kts
09-Aug-18 15:37 35.218244 -101.706712 93 3613ft 0kts
09-Aug-18 15:38 35.218244 -101.706712 93 3613ft 0kts
09-Aug-18 15:39 35.218244 -101.706712 93 3613ft 0kts
09-Aug-18 15:40 35.218244 -101.706712 93 3613ft 0kts
09-Aug-18 15:41 35.218244 -101.706712 93 3613ft 0kts
09-Aug-18 15:42 35.218244 -101.706712 93 3613ft 0kts
09-Aug-18 15:43 35.218244 -101.706712 93 3613ft 0kts
09-Aug-18 15:44 35.218244 -101.706713 93 3613ft 0kts
09-Aug-18 15:45 35.218278 -101.707301 94 3613ft 2kts
09-Aug-18 15:46 35.218292 -101.707558 93 3613ft 0kts
09-Aug-18 15:47 35.218292 -101.707558 93 3613ft 0kts
09-Aug-18 15:48 35.218292 -101.707557 93 3613ft 0kts
09-Aug-18 15:49 35.218701 -101.706942 348 3613ft 9kts
09-Aug-18 15:50 35.219513 -101.708225 236 3613ft 3kts
09-Aug-18 15:51 35.217813 -101.710113 249 3613ft 10kts
09-Aug-18 15:52 35.217049 -101.712395 225 3613ft 15kts
09-Aug-18 15:53 35.212909 -101.717707 225 3613ft 20kts
09-Aug-18 15:54 35.209065 -101.722471 225 3613ft 20kts
09-Aug-18 15:55 35.205222 -101.727329 225 3613ft 18kts
09-Aug-18 15:56 35.203683 -101.730731 311 3613ft 5kts
09-Aug-18 15:57 35.204424 -101.731626 314 3613ft 0kts
09-Aug-18 15:58 35.204424 -101.731626 314 3613ft 0kts
09-Aug-18 15:59 35.204424 -101.731626 314 3613ft 0kts
09-Aug-18 16:00 35.204424 -101.731626 314 3613ft 0kts
09-Aug-18 16:01 35.204424 -101.731626 314 3613ft 0kts
09-Aug-18 16:02 35.204424 -101.731626 314 3613ft 0kts
09-Aug-18 16:03 35.204424 -101.731626 314 3613ft 0kts
09-Aug-18 16:04 35.204424 -101.731626 314 3613ft 0kts
09-Aug-18 16:05 35.204425 -101.731628 314 3613ft 0kts
09-Aug-18 16:06 35.205312 -101.732261 7 3613ft 6kts
09-Aug-18 16:07 35.208272 -101.728728 45 3613ft 76kts
09-Aug-18 16:08 35.227411 -101.704868 45 3616ft 196kts
09-Aug-18 16:09 35.263355 -101.660032 43 4388ft 265kts
09-Aug-18 16:10 35.302222 -101.611861 38 7151ft 230kts
09-Aug-18 16:11 35.350308 -101.612126 317 8538ft 239kts
09-Aug-18 16:12 35.367806 -101.680341 275 9605ft 272kts
09-Aug-18 16:13 35.372581 -101.753527 275 11109ft 280kts
09-Aug-18 16:14 35.377552 -101.828683 275 12484ft 294kts
09-Aug-18 16:15 35.385316 -101.912389 291 13429ft 324kts
09-Aug-18 16:16 35.439407 -101.973099 334 15137ft 327kts
09-Aug-18 16:17 35.510132 -102.013926 335 16495ft 345kts
09-Aug-18 16:18 35.585284 -102.056893 335 18148ft 353kts
09-Aug-18 16:19 35.660207 -102.099524 335 19683ft 360kts
09-Aug-18 16:20 35.732007 -102.149376 324 21119ft 367kts
09-Aug-18 16:21 35.811346 -102.222797 323 22675ft 375kts
09-Aug-18 16:22 35.883358 -102.289759 323 23958ft 381kts
09-Aug-18 16:23 35.952936 -102.354606 323 24209ft 401kts
09-Aug-18 16:24 36.029915 -102.426520 323 24212ft 429kts
09-Aug-18 16:25 36.118448 -102.509453 323 24204ft 451kts
09-Aug-18 16:26 36.208108 -102.593696 323 24201ft 452kts
09-Aug-18 16:27 36.292349 -102.673079 322 24202ft 452kts
09-Aug-18 16:28 36.360423 -102.737409 322 24201ft 452kts
09-Aug-18 16:29 36.433691 -102.806808 322 24201ft 452kts
09-Aug-18 16:30 36.513492 -102.882586 322 24201ft 452kts
09-Aug-18 16:31 36.581501 -102.947322 322 24200ft 452kts
09-Aug-18 16:32 36.663754 -103.025813 322 24200ft 452kts
09-Aug-18 16:33 36.746059 -103.104568 322 24200ft 452kts
09-Aug-18 16:34 36.821054 -103.176516 322 24200ft 452kts
09-Aug-18 16:35 36.892759 -103.245478 322 24200ft 452kts
09-Aug-18 16:36 36.966368 -103.316446 322 24200ft 452kts
09-Aug-18 16:37 37.037468 -103.385165 322 24199ft 452kts
09-Aug-18 16:38 37.110588 -103.456011 322 24200ft 452kts
09-Aug-18 16:39 37.185114 -103.528409 322 24201ft 452kts
09-Aug-18 16:40 37.261505 -103.602902 321 24201ft 452kts
09-Aug-18 16:41 37.328787 -103.680121 317 24202ft 452kts
09-Aug-18 16:42 37.404950 -103.769478 317 24201ft 452kts
09-Aug-18 16:43 37.484214 -103.862667 317 24202ft 452kts
09-Aug-18 16:44 37.562714 -103.955176 317 24201ft 452kts
09-Aug-18 16:45 37.640486 -104.047065 317 24199ft 452kts
09-Aug-18 16:46 37.713575 -104.133663 317 24199ft 428kts
09-Aug-18 16:47 37.785846 -104.219518 317 24175ft 402kts
09-Aug-18 16:48 37.853266 -104.299811 317 24200ft 397kts
09-Aug-18 16:49 37.920368 -104.379920 317 24199ft 396kts
09-Aug-18 16:50 37.985495 -104.457877 317 22441ft 388kts
09-Aug-18 16:51 38.041456 -104.525022 317 20565ft 392kts
09-Aug-18 16:52 38.099635 -104.594997 317 19125ft 382kts
09-Aug-18 16:53 38.164049 -104.642244 350 17385ft 370kts
09-Aug-18 16:54 38.240898 -104.646929 1 15610ft 358kts
09-Aug-18 16:55 38.316252 -104.645852 2 14168ft 349kts
09-Aug-18 16:56 38.392242 -104.644482 2 14174ft 352kts
09-Aug-18 16:57 38.470487 -104.642963 2 14175ft 352kts
09-Aug-18 16:58 38.547812 -104.641420 2 14174ft 329kts
09-Aug-18 16:59 38.611552 -104.640103 2 14174ft 328kts
09-Aug-18 17:00 38.666915 -104.638940 2 14174ft 328kts
09-Aug-18 17:01 38.735551 -104.637482 2 14174ft 328kts
09-Aug-18 17:02 38.797483 -104.637403 0 14174ft 328kts
09-Aug-18 17:03 38.861252 -104.638242 0 14174ft 328kts
09-Aug-18 17:04 38.928871 -104.639120 0 14006ft 325kts
09-Aug-18 17:05 38.997634 -104.639991 0 14177ft 327kts
09-Aug-18 17:06 39.062669 -104.625337 45 14240ft 324kts
09-Aug-18 17:07 39.071027 -104.544445 97 14187ft 300kts
09-Aug-18 17:08 39.091408 -104.475443 49 13719ft 265kts
09-Aug-18 17:09 39.116309 -104.419743 93 12685ft 246kts
09-Aug-18 17:10 39.097870 -104.376082 149 11645ft 243kts
09-Aug-18 17:11 39.045061 -104.366935 196 10734ft 243kts
09-Aug-18 17:12 39.028949 -104.420922 281 10176ft 223kts
09-Aug-18 17:13 39.039717 -104.481114 283 10193ft 223kts
09-Aug-18 17:14 39.050987 -104.542193 283 10170ft 221kts
09-Aug-18 17:15 39.054619 -104.601309 268 9688ft 218kts
09-Aug-18 17:16 39.053322 -104.656005 267 9682ft 207kts
09-Aug-18 17:17 39.037978 -104.703615 205 9700ft 196kts
09-Aug-18 17:18 38.999273 -104.712526 178 8854ft 183kts
09-Aug-18 17:19 38.961123 -104.714679 179 8895ft 177kts
09-Aug-18 17:20 38.929951 -104.715639 177 8387ft 175kts
09-Aug-18 17:21 38.887414 -104.715810 177 7607ft 172kts
09-Aug-18 17:22 38.859294 -104.716154 177 7054ft 176kts
09-Aug-18 17:23 38.836310 -104.715917 174 6556ft 172kts
09-Aug-18 17:24 38.808114 -104.715717 180 6195ft 78kts
09-Aug-18 17:25 38.804021 -104.717162 271 6194ft 3kts
09-Aug-18 17:26 38.805096 -104.717782 1 6194ft 10kts
09-Aug-18 17:27 38.806857 -104.720499 349 6194ft 11kts

Navigation Log

Ident Type
Flight plan parsing failed, navigation log unavailable